createdAt,value
2023-05-22T00:00:12.730Z,56.22
2023-05-22T00:02:59.926Z,56.66
2023-05-22T00:05:27.170Z,57.39
2023-05-22T00:07:54.122Z,59.57
2023-05-22T00:10:21.004Z,61.78
2023-05-22T00:12:47.762Z,63.90
2023-05-22T00:15:14.472Z,66.51
2023-05-22T00:17:42.699Z,67.73
2023-05-22T00:20:10.382Z,66.85
2023-05-22T00:22:37.073Z,65.16
2023-05-22T00:25:04.993Z,64.37
2023-05-22T00:27:33.001Z,63.27
2023-05-22T00:29:59.880Z,62.15
2023-05-22T00:32:26.770Z,61.33
2023-05-22T00:34:53.643Z,60.79
2023-05-22T00:37:20.639Z,59.76
2023-05-22T00:39:48.464Z,59.08
2023-05-22T00:42:15.315Z,55.90
2023-05-22T00:44:42.224Z,54.53
2023-05-22T00:47:08.862Z,54.41
2023-05-22T00:49:35.842Z,54.92
2023-05-22T00:52:02.878Z,55.71
2023-05-22T00:54:30.411Z,56.93
2023-05-22T00:56:57.252Z,57.78
2023-05-22T00:59:23.984Z,59.53
2023-05-22T01:01:50.790Z,60.48
2023-05-22T01:04:18.145Z,61.22
2023-05-22T01:06:46.840Z,61.79
2023-05-22T01:09:14.205Z,64.57
2023-05-22T01:12:10.794Z,67.91
2023-05-22T01:14:48.598Z,68.15
2023-05-22T01:17:34.225Z,66.33
2023-05-22T01:20:10.563Z,64.21
2023-05-22T01:23:08.478Z,62.54
2023-05-22T01:25:35.617Z,60.26
2023-05-22T01:28:15.250Z,58.98
2023-05-22T01:30:57.302Z,56.30
2023-05-22T01:33:25.593Z,55.58
2023-05-22T01:35:53.421Z,54.79
2023-05-22T01:38:20.168Z,55.51
2023-05-22T01:40:47.104Z,55.45
2023-05-22T01:43:14.959Z,58.44
2023-05-22T01:45:41.854Z,59.00
2023-05-22T01:48:08.636Z,60.63
2023-05-22T01:50:35.515Z,62.60
2023-05-22T01:53:32.376Z,66.73
2023-05-22T01:56:43.321Z,68.44
2023-05-22T01:59:19.390Z,67.50
2023-05-22T02:01:46.285Z,66.46
2023-05-22T02:04:12.963Z,63.90
2023-05-22T02:06:39.788Z,61.15
2023-05-22T02:09:06.629Z,60.87
2023-05-22T02:11:35.677Z,60.43
2023-05-22T02:14:05.639Z,59.94
2023-05-22T02:16:34.627Z,59.77
2023-05-22T02:19:05.674Z,57.18
2023-05-22T02:21:33.975Z,54.91
2023-05-22T02:24:01.684Z,55.31
2023-05-22T02:26:29.110Z,56.25
2023-05-22T02:28:55.860Z,56.28
2023-05-22T02:31:22.575Z,56.91
2023-05-22T02:33:49.711Z,57.17
2023-05-22T02:36:16.431Z,58.00
2023-05-22T02:38:46.744Z,57.77
2023-05-22T02:41:13.796Z,58.82
2023-05-22T02:43:40.639Z,60.55
2023-05-22T02:46:07.357Z,61.04
2023-05-22T02:48:34.186Z,60.76
2023-05-22T02:51:01.513Z,62.35
2023-05-22T02:53:28.117Z,67.34
2023-05-22T02:55:58.350Z,69.62
2023-05-22T02:58:25.239Z,69.85
2023-05-22T03:00:54.163Z,66.99
2023-05-22T03:03:20.972Z,64.05
2023-05-22T03:05:49.686Z,63.96
2023-05-22T03:08:16.982Z,62.24
2023-05-22T03:10:43.988Z,59.75
2023-05-22T03:13:10.725Z,56.74
2023-05-22T03:15:37.777Z,56.03
2023-05-22T03:18:11.434Z,55.59
2023-05-22T03:20:39.027Z,57.08
2023-05-22T03:23:06.315Z,58.71
2023-05-22T03:25:34.581Z,59.17
2023-05-22T03:28:02.150Z,59.01
2023-05-22T03:30:31.149Z,58.81
2023-05-22T03:33:18.132Z,59.00
2023-05-22T03:35:45.214Z,59.52
2023-05-22T03:38:11.960Z,60.21
2023-05-22T03:40:39.091Z,59.97
2023-05-22T03:43:06.580Z,60.45
2023-05-22T03:45:33.532Z,60.37
2023-05-22T03:48:00.734Z,63.99
2023-05-22T03:50:27.657Z,65.43
2023-05-22T03:52:54.282Z,63.68
2023-05-22T03:55:21.137Z,60.82
2023-05-22T03:57:48.079Z,56.14
2023-05-22T04:00:18.873Z,54.37
2023-05-22T04:02:46.199Z,54.75
2023-05-22T04:05:13.752Z,54.95
2023-05-22T04:07:40.769Z,55.19
2023-05-22T04:10:08.021Z,56.15
2023-05-22T04:12:34.889Z,56.64
2023-05-22T04:15:01.734Z,55.64
2023-05-22T04:17:33.673Z,55.52
2023-05-22T04:20:00.859Z,56.13
2023-05-22T04:22:30.205Z,56.05
2023-05-22T04:24:57.394Z,54.44
2023-05-22T04:27:26.566Z,55.27
2023-05-22T04:29:53.412Z,53.49
2023-05-22T04:32:23.239Z,52.87
2023-05-22T04:34:53.172Z,51.76
2023-05-22T04:37:20.049Z,50.87
2023-05-22T04:39:46.953Z,51.47
2023-05-22T04:42:13.941Z,55.04
2023-05-22T04:44:41.549Z,54.82
2023-05-22T04:47:11.124Z,51.56
2023-05-22T04:49:38.707Z,50.06
2023-05-22T04:52:06.786Z,46.29
2023-05-22T04:54:34.113Z,43.39
2023-05-22T04:57:02.487Z,41.80
2023-05-22T04:59:31.105Z,41.41
2023-05-22T05:01:57.936Z,40.78
2023-05-22T05:04:24.747Z,39.33
2023-05-22T05:06:53.028Z,37.20
2023-05-22T05:09:20.158Z,36.55
2023-05-22T05:11:47.325Z,35.57
2023-05-22T05:14:14.477Z,35.56
2023-05-22T05:16:41.726Z,35.87
2023-05-22T05:19:08.798Z,36.02
2023-05-22T05:21:36.227Z,37.65
2023-05-22T05:24:03.206Z,35.83
2023-05-22T05:26:30.122Z,35.56
2023-05-22T05:28:57.916Z,35.13
2023-05-22T05:31:30.360Z,33.00
2023-05-22T05:34:20.727Z,31.58
2023-05-22T05:36:52.820Z,32.73
2023-05-22T05:39:21.991Z,32.28
2023-05-22T05:41:48.881Z,31.84
2023-05-22T05:44:15.869Z,33.07
2023-05-22T05:46:42.589Z,31.52
2023-05-22T05:49:10.749Z,30.90
2023-05-22T05:51:39.379Z,31.64
2023-05-22T05:54:06.541Z,29.82
2023-05-22T05:56:33.219Z,30.16
2023-05-22T05:59:00.782Z,29.75
2023-05-22T06:01:51.067Z,29.64
2023-05-22T06:04:24.020Z,29.67
2023-05-22T06:06:52.753Z,28.50
2023-05-22T06:09:35.711Z,29.48
2023-05-22T06:12:19.788Z,28.83
2023-05-22T06:14:46.848Z,27.88
2023-05-22T06:17:15.586Z,28.35
2023-05-22T06:19:43.293Z,28.06
2023-05-22T06:22:10.441Z,25.89
2023-05-22T06:24:38.438Z,28.44
2023-05-22T06:27:09.140Z,28.01
2023-05-22T06:29:36.201Z,26.58
2023-05-22T06:32:03.863Z,27.16
2023-05-22T06:34:33.168Z,25.31
2023-05-22T06:36:59.906Z,24.94
2023-05-22T06:39:31.840Z,25.60
2023-05-22T06:41:59.091Z,24.68
2023-05-22T06:44:26.031Z,26.22
2023-05-22T06:46:55.121Z,27.07
2023-05-22T06:49:24.002Z,27.07
2023-05-22T06:51:53.228Z,26.07
2023-05-22T06:54:21.202Z,26.93
2023-05-22T06:56:48.933Z,26.22
2023-05-22T06:59:16.978Z,26.65
2023-05-22T07:02:03.769Z,27.05
2023-05-22T07:05:03.726Z,27.31
2023-05-22T07:07:34.383Z,26.26
2023-05-22T07:10:02.542Z,26.91
2023-05-22T07:12:30.188Z,26.83
2023-05-22T07:14:59.299Z,27.33
2023-05-22T07:17:26.071Z,26.64
2023-05-22T07:19:53.276Z,26.61
2023-05-22T07:22:20.877Z,25.85
2023-05-22T07:24:48.059Z,26.31
2023-05-22T07:27:15.949Z,26.44
2023-05-22T07:29:42.699Z,26.27
2023-05-22T07:32:09.455Z,26.19
2023-05-22T07:34:36.792Z,25.81
2023-05-22T07:37:11.031Z,26.01
2023-05-22T07:39:37.985Z,27.67
2023-05-22T07:42:05.313Z,26.82
2023-05-22T07:44:33.783Z,26.07
2023-05-22T07:47:00.417Z,27.58
2023-05-22T07:49:28.547Z,27.75
2023-05-22T07:51:55.295Z,27.75
2023-05-22T07:54:25.564Z,27.31
2023-05-22T07:56:52.466Z,27.64
2023-05-22T07:59:20.938Z,27.29
2023-05-22T08:01:47.566Z,26.59
2023-05-22T08:06:43.208Z,26.94
2023-05-22T08:09:10.193Z,27.06
2023-05-22T08:11:39.875Z,26.81
2023-05-22T08:14:07.098Z,25.57
2023-05-22T08:16:34.124Z,26.13
2023-05-22T08:19:00.965Z,26.51
2023-05-22T08:21:27.692Z,26.33
2023-05-22T08:23:54.354Z,26.81
2023-05-22T08:26:25.439Z,25.94
2023-05-22T08:28:52.145Z,26.61
2023-05-22T08:31:18.795Z,26.42
2023-05-22T08:33:45.504Z,26.68
2023-05-22T08:36:12.850Z,27.42
2023-05-22T08:38:40.380Z,29.35
2023-05-22T08:41:07.698Z,29.61
2023-05-22T08:43:34.764Z,30.93
2023-05-22T08:46:05.601Z,31.50
2023-05-22T08:48:32.495Z,32.22
2023-05-22T08:51:04.235Z,31.52
2023-05-22T08:53:36.092Z,32.00
2023-05-22T08:56:04.800Z,32.72
2023-05-22T08:58:32.912Z,31.91
2023-05-22T09:00:59.591Z,32.11
2023-05-22T09:03:32.136Z,31.81
2023-05-22T09:05:59.137Z,32.09
2023-05-22T09:08:26.695Z,33.39
2023-05-22T09:10:55.576Z,34.71
2023-05-22T09:13:30.007Z,34.27
2023-05-22T09:16:07.365Z,34.12
2023-05-22T09:18:34.036Z,33.59
2023-05-22T09:21:02.670Z,33.49
2023-05-22T09:23:29.454Z,32.52
2023-05-22T09:25:57.144Z,33.29
2023-05-22T09:28:24.170Z,33.95
2023-05-22T09:30:52.760Z,33.51
2023-05-22T09:33:19.957Z,33.18
2023-05-22T09:35:46.633Z,33.82
2023-05-22T09:38:13.530Z,34.04
2023-05-22T09:40:41.385Z,34.13
2023-05-22T09:43:11.493Z,32.89
2023-05-22T09:45:38.614Z,34.03
2023-05-22T09:48:06.136Z,34.54
2023-05-22T09:50:32.791Z,34.11
2023-05-22T09:53:03.632Z,33.25
2023-05-22T09:55:31.425Z,32.68
2023-05-22T09:58:00.662Z,32.80
2023-05-22T10:00:27.395Z,33.35
2023-05-22T10:03:24.177Z,33.83
2023-05-22T10:05:53.442Z,33.76
2023-05-22T10:08:22.830Z,32.77
2023-05-22T10:10:52.666Z,33.57
2023-05-22T10:13:20.357Z,32.82
2023-05-22T10:15:48.425Z,31.62
2023-05-22T10:18:16.118Z,32.97
2023-05-22T10:20:43.466Z,33.26
2023-05-22T10:23:10.620Z,31.97
2023-05-22T10:25:38.989Z,32.43
2023-05-22T10:28:06.420Z,32.92
2023-05-22T10:30:40.442Z,32.61
2023-05-22T10:33:41.529Z,32.88
2023-05-22T10:36:48.343Z,32.66
2023-05-22T10:40:01.766Z,33.03
2023-05-22T10:42:32.437Z,31.92
2023-05-22T10:45:03.136Z,32.57
2023-05-22T10:47:34.525Z,32.38
2023-05-22T10:50:10.488Z,32.90
2023-05-22T10:52:38.044Z,32.36
2023-05-22T10:55:08.809Z,31.91
2023-05-22T10:57:38.996Z,33.12
2023-05-22T11:00:10.746Z,32.50
2023-05-22T11:02:42.635Z,33.08
2023-05-22T11:05:16.456Z,32.98
2023-05-22T11:07:43.210Z,33.57
2023-05-22T11:10:09.912Z,31.52
2023-05-22T11:12:36.864Z,31.86
2023-05-22T11:15:11.281Z,32.17
2023-05-22T11:17:44.329Z,32.56
2023-05-22T11:20:25.164Z,32.13
2023-05-22T11:23:06.904Z,32.69
2023-05-22T11:25:35.005Z,32.00
2023-05-22T11:28:03.161Z,33.12
2023-05-22T11:30:30.250Z,35.32
2023-05-22T11:32:57.813Z,34.90
2023-05-22T11:35:24.728Z,34.06
2023-05-22T11:37:52.811Z,32.98
2023-05-22T11:40:24.883Z,32.09
2023-05-22T11:42:54.647Z,31.88
2023-05-22T11:45:21.778Z,32.20
2023-05-22T11:47:49.778Z,32.42
2023-05-22T11:50:22.733Z,32.54
2023-05-22T11:52:53.231Z,32.65
2023-05-22T11:55:19.908Z,32.69
2023-05-22T11:57:47.439Z,32.46
2023-05-22T12:00:16.021Z,32.54
2023-05-22T12:02:46.950Z,32.32
2023-05-22T12:05:15.297Z,31.82
2023-05-22T12:07:41.973Z,31.85
2023-05-22T12:10:09.112Z,31.24
2023-05-22T12:12:37.336Z,31.26
2023-05-22T12:15:06.885Z,31.58
2023-05-22T12:17:36.805Z,31.25
2023-05-22T12:20:05.174Z,32.04
2023-05-22T12:22:31.822Z,31.35
2023-05-22T12:24:58.436Z,29.93
2023-05-22T12:27:30.491Z,30.55
2023-05-22T12:29:58.314Z,31.46
2023-05-22T12:32:25.304Z,31.89
2023-05-22T12:34:52.309Z,31.34
2023-05-22T12:37:25.437Z,31.64
2023-05-22T12:39:57.045Z,31.42
2023-05-22T12:42:25.290Z,31.14
2023-05-22T12:44:56.612Z,30.31
2023-05-22T12:47:23.921Z,30.36
2023-05-22T12:49:53.324Z,31.14
2023-05-22T12:52:19.953Z,30.18
2023-05-22T12:54:46.587Z,30.03
2023-05-22T12:57:13.252Z,30.23
2023-05-22T12:59:40.668Z,30.44
2023-05-22T13:02:11.222Z,30.21
2023-05-22T13:04:37.886Z,30.61
2023-05-22T13:07:04.966Z,32.00
2023-05-22T13:09:32.147Z,32.01
2023-05-22T13:12:00.510Z,32.23
2023-05-22T13:14:27.613Z,32.86
2023-05-22T13:16:55.722Z,32.58
2023-05-22T13:19:22.366Z,32.08
2023-05-22T13:21:49.128Z,31.12
2023-05-22T13:24:15.880Z,30.60
2023-05-22T13:26:42.726Z,30.05
2023-05-22T13:29:09.530Z,30.48
2023-05-22T13:31:37.673Z,29.82
2023-05-22T13:34:05.280Z,29.45
2023-05-22T13:36:32.165Z,29.30
2023-05-22T13:38:59.682Z,30.58
2023-05-22T13:41:26.266Z,31.19
2023-05-22T13:43:53.160Z,30.79
2023-05-22T13:46:21.108Z,31.04
2023-05-22T13:48:47.969Z,30.19
2023-05-22T13:51:14.640Z,29.22
2023-05-22T13:53:41.317Z,30.09
2023-05-22T13:56:08.034Z,29.97
2023-05-22T13:58:35.829Z,30.85
2023-05-22T14:01:02.560Z,30.95
2023-05-22T14:03:29.837Z,31.57
2023-05-22T14:05:56.526Z,31.65
2023-05-22T14:08:24.120Z,32.14
2023-05-22T14:10:52.934Z,31.76
2023-05-22T14:13:19.514Z,30.98
2023-05-22T14:15:46.443Z,29.50
2023-05-22T14:18:15.593Z,30.32
2023-05-22T14:20:42.849Z,31.02
2023-05-22T14:23:12.007Z,32.00
2023-05-22T14:25:42.415Z,31.71
2023-05-22T14:28:10.287Z,31.33
2023-05-22T14:30:39.083Z,30.99
2023-05-22T14:33:06.631Z,30.64
2023-05-22T14:35:34.013Z,30.94
2023-05-22T14:38:01.275Z,30.46
2023-05-22T14:40:27.942Z,30.97
2023-05-22T14:42:54.731Z,30.68
2023-05-22T14:45:21.524Z,30.94
2023-05-22T14:47:48.140Z,30.42
2023-05-22T14:50:19.719Z,30.71
2023-05-22T14:52:48.299Z,30.94
2023-05-22T14:55:15.960Z,31.00
2023-05-22T14:57:42.740Z,31.10
2023-05-22T15:00:11.463Z,31.15
2023-05-22T15:02:38.144Z,31.92
2023-05-22T15:05:06.404Z,31.74
2023-05-22T15:07:43.156Z,31.47
2023-05-22T15:10:12.444Z,31.09
2023-05-22T15:12:39.187Z,32.20
2023-05-22T15:15:06.792Z,32.88
2023-05-22T15:17:33.578Z,33.01
2023-05-22T15:20:00.316Z,32.30
2023-05-22T15:22:26.961Z,32.35
2023-05-22T15:25:08.000Z,31.86
2023-05-22T15:27:37.796Z,31.71
2023-05-22T15:30:06.118Z,32.01
2023-05-22T15:32:32.870Z,32.24
2023-05-22T15:34:59.842Z,32.96
2023-05-22T15:37:27.160Z,32.90
2023-05-22T15:39:53.875Z,33.32
2023-05-22T15:42:21.480Z,33.19
2023-05-22T15:44:48.204Z,33.22
2023-05-22T15:47:15.993Z,33.43
2023-05-22T15:49:42.682Z,33.68
2023-05-22T15:52:09.506Z,33.54
2023-05-22T15:54:36.098Z,33.04
2023-05-22T15:57:03.013Z,32.47
2023-05-22T15:59:29.656Z,32.86
2023-05-22T16:01:56.204Z,32.81
2023-05-22T16:04:22.961Z,33.56
2023-05-22T16:06:49.572Z,33.01
2023-05-22T16:09:17.980Z,33.13
2023-05-22T16:11:45.197Z,33.45
2023-05-22T16:14:11.812Z,34.38
2023-05-22T16:16:38.503Z,33.79
2023-05-22T16:19:05.476Z,33.95
2023-05-22T16:21:32.245Z,33.59
2023-05-22T16:23:58.899Z,34.26
2023-05-22T16:26:26.339Z,33.70
2023-05-22T16:28:52.927Z,33.24
2023-05-22T16:31:19.629Z,33.01
2023-05-22T16:33:46.372Z,33.81
2023-05-22T16:36:13.036Z,33.66
2023-05-22T16:38:39.712Z,33.81
2023-05-22T16:41:06.362Z,33.48
2023-05-22T16:43:33.073Z,34.50
2023-05-22T16:45:59.748Z,34.43
2023-05-22T16:48:26.534Z,34.59
2023-05-22T16:50:53.338Z,34.61
2023-05-22T16:53:20.178Z,34.98
2023-05-22T16:55:46.871Z,34.86
2023-05-22T16:58:13.610Z,35.01
2023-05-22T17:00:40.791Z,35.39
2023-05-22T17:03:08.081Z,35.28
2023-05-22T17:05:35.657Z,35.27
2023-05-22T17:08:02.564Z,35.86
2023-05-22T17:10:29.228Z,36.19
2023-05-22T17:12:55.894Z,36.20
2023-05-22T17:15:22.864Z,36.24
2023-05-22T17:17:50.075Z,36.59
2023-05-22T17:20:16.837Z,36.79
2023-05-22T17:22:43.589Z,36.90
2023-05-22T17:25:10.321Z,36.95
2023-05-22T17:27:37.213Z,37.09
2023-05-22T17:30:06.098Z,36.92
2023-05-22T17:32:34.370Z,37.39
2023-05-22T17:35:01.770Z,37.97
2023-05-22T17:37:28.443Z,39.04
2023-05-22T17:39:55.176Z,39.25
2023-05-22T17:42:22.645Z,39.67
2023-05-22T17:44:49.484Z,39.84
2023-05-22T17:47:16.297Z,40.11
2023-05-22T17:49:43.055Z,40.90
2023-05-22T17:52:10.634Z,41.58
2023-05-22T17:54:37.482Z,42.04
2023-05-22T17:57:04.870Z,42.43
2023-05-22T17:59:31.920Z,42.98
2023-05-22T18:02:02.671Z,43.51
2023-05-22T18:04:30.156Z,43.65
2023-05-22T18:06:56.998Z,44.04
2023-05-22T18:09:23.737Z,44.68
2023-05-22T18:11:55.366Z,44.97
2023-05-22T18:14:23.308Z,45.25
2023-05-22T18:16:50.178Z,45.84
2023-05-22T18:19:17.146Z,45.80
2023-05-22T18:21:44.711Z,46.61
2023-05-22T18:24:14.821Z,46.79
2023-05-22T18:26:42.736Z,47.08
2023-05-22T18:29:09.778Z,47.43
2023-05-22T18:31:38.882Z,47.59
2023-05-22T18:34:05.575Z,47.50
2023-05-22T18:36:35.662Z,48.01
2023-05-22T18:39:04.381Z,47.82
2023-05-22T18:41:34.464Z,48.01
2023-05-22T18:44:01.082Z,48.36
2023-05-22T18:46:27.693Z,48.57
2023-05-22T18:48:55.091Z,48.99
2023-05-22T18:51:24.173Z,49.92
2023-05-22T18:53:51.377Z,50.24
2023-05-22T18:56:20.772Z,50.55
2023-05-22T18:58:50.013Z,51.40
2023-05-22T19:01:16.869Z,51.54
2023-05-22T19:03:43.642Z,51.63
2023-05-22T19:06:12.229Z,52.28
2023-05-22T19:08:39.912Z,52.75
2023-05-22T19:11:07.473Z,53.09
2023-05-22T19:13:34.454Z,53.03
2023-05-22T19:16:04.239Z,53.23
2023-05-22T19:18:32.235Z,53.42
2023-05-22T19:21:00.163Z,53.91
2023-05-22T19:23:29.476Z,54.65
2023-05-22T19:25:57.712Z,54.73
2023-05-22T19:28:26.445Z,55.55
2023-05-22T19:30:56.859Z,55.68
2023-05-22T19:33:25.734Z,55.62
2023-05-22T19:35:53.614Z,56.05
2023-05-22T19:38:21.052Z,56.59
2023-05-22T19:40:48.058Z,57.24
2023-05-22T19:43:15.835Z,57.47
2023-05-22T19:45:45.122Z,57.26
2023-05-22T19:48:13.104Z,57.68
2023-05-22T19:50:41.260Z,57.86
2023-05-22T19:53:08.315Z,57.91
2023-05-22T19:55:36.445Z,57.96
2023-05-22T19:58:03.993Z,57.86
2023-05-22T20:00:31.310Z,58.08
2023-05-22T20:02:58.119Z,58.15
2023-05-22T20:05:25.442Z,57.90
2023-05-22T20:07:53.760Z,58.24
2023-05-22T20:10:20.497Z,58.81
2023-05-22T20:12:47.180Z,59.20
2023-05-22T20:15:15.374Z,59.50
2023-05-22T20:17:46.887Z,59.37
2023-05-22T20:20:13.912Z,59.39
2023-05-22T20:22:41.676Z,59.47
2023-05-22T20:25:09.276Z,60.29
2023-05-22T20:27:36.719Z,60.25
2023-05-22T20:30:04.285Z,60.43
2023-05-22T20:32:31.769Z,60.79
2023-05-22T20:34:59.443Z,61.11
2023-05-22T20:37:26.219Z,61.66
2023-05-22T20:39:52.927Z,61.85
2023-05-22T20:42:19.688Z,62.26
2023-05-22T20:44:46.948Z,64.23
2023-05-22T20:47:13.677Z,70.10
2023-05-22T20:49:40.725Z,69.61
2023-05-22T20:52:09.521Z,68.58
2023-05-22T20:54:36.870Z,67.82
2023-05-22T20:57:03.970Z,66.16
2023-05-22T20:59:31.600Z,64.00
2023-05-22T21:01:58.324Z,62.78
2023-05-22T21:04:25.484Z,60.99
2023-05-22T21:06:52.305Z,61.18
2023-05-22T21:09:19.252Z,60.47
2023-05-22T21:11:46.808Z,58.65
2023-05-22T21:14:13.955Z,55.82
2023-05-22T21:16:40.647Z,54.39
2023-05-22T21:19:07.943Z,53.84
2023-05-22T21:21:40.797Z,54.12
2023-05-22T21:24:09.246Z,54.67
2023-05-22T21:26:35.845Z,56.16
2023-05-22T21:29:03.326Z,57.06
2023-05-22T21:31:30.187Z,58.48
2023-05-22T21:33:56.954Z,58.59
2023-05-22T21:36:23.618Z,58.76
2023-05-22T21:38:52.518Z,59.96
2023-05-22T21:41:19.155Z,59.70
2023-05-22T21:43:46.944Z,60.88
2023-05-22T21:46:13.674Z,61.28
2023-05-22T21:48:40.400Z,61.12
2023-05-22T21:51:07.032Z,61.32
2023-05-22T21:53:33.695Z,62.83
2023-05-22T21:56:00.440Z,65.75
2023-05-22T21:58:27.177Z,68.72
2023-05-22T22:00:53.813Z,69.09
2023-05-22T22:03:20.958Z,68.37
2023-05-22T22:05:47.832Z,67.08
2023-05-22T22:08:14.394Z,66.09
2023-05-22T22:10:41.258Z,64.95
2023-05-22T22:13:08.171Z,62.47
2023-05-22T22:15:36.052Z,60.27
2023-05-22T22:18:04.407Z,58.02
2023-05-22T22:20:43.227Z,55.74
2023-05-22T22:23:11.627Z,55.07
2023-05-22T22:25:38.500Z,54.76
2023-05-22T22:28:05.470Z,55.11
2023-05-22T22:30:32.270Z,55.98
2023-05-22T22:32:59.055Z,56.86
2023-05-22T22:35:25.827Z,59.25
2023-05-22T22:37:52.424Z,59.65
2023-05-22T22:40:19.133Z,59.15
2023-05-22T22:42:45.775Z,59.39
2023-05-22T22:45:12.412Z,61.38
2023-05-22T22:47:39.201Z,62.15
2023-05-22T22:50:06.804Z,64.47
2023-05-22T22:52:33.650Z,67.33
2023-05-22T22:55:01.822Z,68.47
2023-05-22T22:57:28.635Z,68.25
2023-05-22T22:59:55.325Z,65.52
2023-05-22T23:02:21.899Z,64.44
2023-05-22T23:04:48.611Z,64.69
2023-05-22T23:07:15.820Z,63.38
2023-05-22T23:09:42.433Z,61.73
2023-05-22T23:12:09.288Z,59.74
2023-05-22T23:14:37.165Z,56.58
2023-05-22T23:17:04.002Z,55.17
2023-05-22T23:19:31.068Z,54.65
2023-05-22T23:21:57.835Z,54.56
2023-05-22T23:24:24.635Z,54.39
2023-05-22T23:26:52.257Z,55.41
2023-05-22T23:29:18.935Z,57.34
2023-05-22T23:31:46.863Z,58.22
2023-05-22T23:34:14.182Z,57.85
2023-05-22T23:36:40.823Z,58.29
2023-05-22T23:39:07.434Z,58.44
2023-05-22T23:41:34.882Z,60.09
2023-05-22T23:44:02.044Z,61.41
2023-05-22T23:46:28.860Z,63.26
2023-05-22T23:48:55.810Z,66.14
2023-05-22T23:51:22.499Z,68.48
2023-05-22T23:53:49.211Z,68.27
2023-05-22T23:56:16.317Z,66.28
2023-05-22T23:58:43.159Z,64.64
